createdAt,value
2017-09-07T00:01:58.312Z,67.70
2017-09-07T00:04:25.794Z,67.60
2017-09-07T00:06:53.270Z,67.10
2017-09-07T00:09:20.750Z,66.90
2017-09-07T00:11:48.239Z,68.00
2017-09-07T00:14:15.714Z,66.90
2017-09-07T00:16:43.189Z,67.00
2017-09-07T00:19:10.667Z,67.30
2017-09-07T00:21:38.162Z,67.10
2017-09-07T00:24:05.646Z,66.50
2017-09-07T00:26:33.130Z,67.00
2017-09-07T00:29:00.612Z,67.30
2017-09-07T00:31:28.090Z,66.90
2017-09-07T00:33:55.579Z,67.30
2017-09-07T00:36:23.062Z,67.80
2017-09-07T00:38:50.530Z,68.00
2017-09-07T00:41:18.010Z,69.10
2017-09-07T00:43:45.490Z,69.30
2017-09-07T00:46:12.970Z,69.90
2017-09-07T00:48:41.404Z,70.10
2017-09-07T00:51:08.874Z,70.30
2017-09-07T00:53:36.372Z,70.60
2017-09-07T00:56:03.851Z,70.80
2017-09-07T00:58:31.324Z,70.80
2017-09-07T01:00:58.803Z,70.10
2017-09-07T01:03:26.268Z,70.00
2017-09-07T01:05:53.736Z,70.00
2017-09-07T01:08:21.215Z,70.60
2017-09-07T01:10:48.686Z,71.20
2017-09-07T01:13:16.159Z,69.40
2017-09-07T01:15:43.646Z,69.00
2017-09-07T01:18:11.122Z,70.00
2017-09-07T01:20:38.602Z,69.80
2017-09-07T01:23:06.087Z,69.20
2017-09-07T01:25:33.553Z,69.80
2017-09-07T01:28:01.035Z,70.00
2017-09-07T01:30:28.515Z,70.20
2017-09-07T01:32:55.999Z,70.20
2017-09-07T01:35:23.476Z,70.30
2017-09-07T01:37:50.954Z,70.40
2017-09-07T01:40:18.439Z,70.40
2017-09-07T01:42:45.923Z,70.00
2017-09-07T01:45:13.402Z,70.20
2017-09-07T01:47:40.886Z,71.40
2017-09-07T01:50:08.362Z,70.80
2017-09-07T01:52:35.838Z,70.70
2017-09-07T01:57:45.277Z,71.20
2017-09-07T02:00:12.751Z,71.60
2017-09-07T02:02:40.226Z,71.30
2017-09-07T02:05:07.697Z,71.20
2017-09-07T02:07:35.171Z,71.80
2017-09-07T02:10:02.648Z,72.40
2017-09-07T02:12:30.139Z,72.10
2017-09-07T02:14:57.619Z,72.40
2017-09-07T02:17:25.114Z,71.50
2017-09-07T02:19:52.586Z,71.10
2017-09-07T02:22:20.069Z,72.00
2017-09-07T02:24:47.546Z,71.00
2017-09-07T02:27:15.026Z,71.20
2017-09-07T02:29:42.516Z,71.20
2017-09-07T02:32:10.010Z,72.30
2017-09-07T02:34:37.485Z,70.60
2017-09-07T02:37:04.958Z,70.70
2017-09-07T02:39:32.448Z,70.80
2017-09-07T02:41:59.931Z,71.00
2017-09-07T02:44:27.406Z,70.60
2017-09-07T02:46:54.897Z,71.00
2017-09-07T02:49:22.373Z,72.50
2017-09-07T02:51:49.852Z,70.30
2017-09-07T02:54:17.334Z,70.70
2017-09-07T02:56:44.814Z,71.00
2017-09-07T02:59:12.297Z,72.20
2017-09-07T03:01:39.773Z,71.20
2017-09-07T03:04:07.260Z,71.40
2017-09-07T03:06:34.734Z,71.80
2017-09-07T03:09:02.220Z,71.80
2017-09-07T03:11:29.707Z,72.00
2017-09-07T03:13:57.187Z,72.20
2017-09-07T03:16:24.663Z,72.50
2017-09-07T03:18:52.136Z,72.50
2017-09-07T03:21:19.730Z,72.30
2017-09-07T03:23:47.205Z,72.50
2017-09-07T03:26:14.681Z,72.30
2017-09-07T03:28:42.158Z,72.40
2017-09-07T03:31:09.647Z,72.30
2017-09-07T03:33:37.127Z,72.50
2017-09-07T03:36:04.610Z,73.30
2017-09-07T03:38:32.093Z,72.60
2017-09-07T03:40:59.570Z,72.80
2017-09-07T03:43:28.493Z,73.00
2017-09-07T03:45:56.007Z,73.40
2017-09-07T03:48:23.627Z,73.40
2017-09-07T03:50:51.111Z,73.90
2017-09-07T03:53:18.595Z,73.80
2017-09-07T03:55:46.081Z,73.70
2017-09-07T03:58:13.557Z,73.30
2017-09-07T04:00:41.039Z,70.60
2017-09-07T04:03:08.517Z,69.30
2017-09-07T04:05:39.328Z,68.00
2017-09-07T04:08:14.868Z,68.00
2017-09-07T04:10:51.458Z,70.50
2017-09-07T04:13:25.941Z,71.90
2017-09-07T04:16:01.559Z,73.10
2017-09-07T04:18:29.848Z,74.10
2017-09-07T04:20:57.357Z,74.60
2017-09-07T04:23:24.829Z,74.40
2017-09-07T04:25:52.310Z,74.40
2017-09-07T04:28:19.785Z,74.40
2017-09-07T04:30:47.275Z,75.10
2017-09-07T04:33:15.163Z,75.70
2017-09-07T04:35:43.618Z,76.10
2017-09-07T04:38:11.924Z,76.50
2017-09-07T04:40:39.841Z,76.80
2017-09-07T04:43:07.331Z,76.90
2017-09-07T04:45:34.819Z,76.90
2017-09-07T04:48:02.312Z,77.20
2017-09-07T04:50:29.791Z,77.40
2017-09-07T04:52:57.291Z,77.70
2017-09-07T04:55:24.775Z,77.90
2017-09-07T04:57:52.254Z,78.10
2017-09-07T05:00:19.738Z,78.00
2017-09-07T05:02:47.245Z,78.00
2017-09-07T05:05:14.842Z,77.70
2017-09-07T05:07:42.482Z,77.80
2017-09-07T05:10:09.975Z,78.00
2017-09-07T05:12:37.590Z,78.30
2017-09-07T05:15:05.087Z,79.30
2017-09-07T05:17:32.753Z,79.60
2017-09-07T05:20:00.252Z,79.10
2017-09-07T05:22:27.747Z,78.70
2017-09-07T05:24:55.229Z,78.70
2017-09-07T05:27:22.705Z,77.40
2017-09-07T05:29:50.967Z,77.50
2017-09-07T05:32:18.446Z,77.50
2017-09-07T05:34:45.926Z,77.50
2017-09-07T05:37:13.409Z,77.50
2017-09-07T05:39:40.896Z,77.00
2017-09-07T05:42:08.388Z,77.30
2017-09-07T05:44:35.876Z,77.50
2017-09-07T05:47:03.359Z,77.70
2017-09-07T05:49:30.851Z,78.00
2017-09-07T05:51:58.335Z,77.90
2017-09-07T05:54:25.815Z,78.60
2017-09-07T05:56:53.298Z,78.50
2017-09-07T05:59:20.773Z,78.90
2017-09-07T06:01:48.278Z,78.90
2017-09-07T06:04:15.757Z,80.10
2017-09-07T06:06:43.236Z,79.80
2017-09-07T06:09:10.714Z,79.80
2017-09-07T06:11:38.201Z,80.40
2017-09-07T06:14:05.696Z,79.40
2017-09-07T06:16:33.177Z,80.00
2017-09-07T06:19:00.683Z,80.30
2017-09-07T06:21:28.188Z,80.30
2017-09-07T06:23:55.697Z,80.50
2017-09-07T06:26:23.195Z,80.70
2017-09-07T06:28:50.686Z,80.60
2017-09-07T06:31:18.173Z,81.20
2017-09-07T06:33:45.669Z,80.60
2017-09-07T06:36:13.159Z,80.60
2017-09-07T06:38:40.643Z,80.30
2017-09-07T06:41:08.132Z,82.30
2017-09-07T06:43:35.609Z,80.70
2017-09-07T06:46:03.118Z,81.30
2017-09-07T06:48:30.623Z,78.90
2017-09-07T06:50:58.114Z,77.70
2017-09-07T06:53:25.595Z,79.00
2017-09-07T06:55:53.095Z,79.20
2017-09-07T06:58:20.578Z,78.80
2017-09-07T07:00:48.069Z,79.90
2017-09-07T07:03:15.551Z,78.40
2017-09-07T07:05:43.040Z,78.50
2017-09-07T07:08:10.519Z,78.50
2017-09-07T07:10:38.001Z,78.60
2017-09-07T07:13:05.478Z,78.70
2017-09-07T07:15:32.972Z,78.80
2017-09-07T07:18:00.511Z,79.10
2017-09-07T07:20:28.017Z,78.70
2017-09-07T07:22:55.555Z,78.50
2017-09-07T07:25:23.561Z,78.70
2017-09-07T07:27:51.042Z,77.90
2017-09-07T07:30:18.544Z,77.80
2017-09-07T07:32:46.066Z,78.10
2017-09-07T07:35:13.556Z,76.70
2017-09-07T07:37:41.045Z,76.80
2017-09-07T07:40:09.301Z,77.60
2017-09-07T07:42:36.980Z,77.60
2017-09-07T07:45:04.791Z,77.70
2017-09-07T07:47:32.760Z,76.70
2017-09-07T07:50:01.094Z,75.80
2017-09-07T07:52:29.316Z,77.90
2017-09-07T07:54:57.286Z,75.10
2017-09-07T07:57:25.397Z,76.10
2017-09-07T07:59:54.008Z,76.50
2017-09-07T08:02:22.434Z,74.80
2017-09-07T08:04:50.152Z,74.40
2017-09-07T08:07:18.234Z,74.00
2017-09-07T08:09:46.054Z,74.90
2017-09-07T08:12:13.692Z,73.10
2017-09-07T08:14:41.589Z,72.60
2017-09-07T08:17:09.446Z,72.70
2017-09-07T08:19:37.193Z,72.20
2017-09-07T08:22:04.761Z,72.00
2017-09-07T08:24:33.040Z,71.60
2017-09-07T08:27:00.532Z,72.20
2017-09-07T08:29:28.028Z,71.40
2017-09-07T08:31:55.638Z,72.50
2017-09-07T08:34:23.136Z,71.50
2017-09-07T08:36:50.608Z,71.00
2017-09-07T08:39:18.091Z,71.70
2017-09-07T08:41:45.592Z,70.70
2017-09-07T08:44:13.078Z,70.90
2017-09-07T08:46:40.586Z,69.90
2017-09-07T08:49:09.321Z,70.30
2017-09-07T08:51:36.793Z,70.00
2017-09-07T08:54:04.271Z,70.80
2017-09-07T08:56:31.772Z,71.10
2017-09-07T08:58:59.395Z,70.00
2017-09-07T09:01:26.896Z,70.80
2017-09-07T09:03:54.384Z,71.50
2017-09-07T09:06:22.007Z,70.40
2017-09-07T09:08:49.602Z,73.30
2017-09-07T09:11:17.087Z,70.80
2017-09-07T09:13:44.580Z,71.60
2017-09-07T09:16:12.056Z,73.00
2017-09-07T09:18:40.072Z,69.70
2017-09-07T09:21:07.572Z,69.90
2017-09-07T09:23:35.072Z,70.50
2017-09-07T09:26:02.862Z,70.90
2017-09-07T09:28:30.429Z,69.40
2017-09-07T09:30:57.950Z,70.40
2017-09-07T09:33:25.443Z,69.70
2017-09-07T09:35:52.934Z,70.20
2017-09-07T09:38:20.446Z,70.10
2017-09-07T09:40:47.987Z,71.40
2017-09-07T09:43:15.500Z,70.60
2017-09-07T09:45:43.118Z,67.50
2017-09-07T09:48:17.272Z,71.20
2017-09-07T09:50:45.376Z,68.30
2017-09-07T09:53:13.229Z,70.40
2017-09-07T09:55:41.540Z,69.80
2017-09-07T09:58:09.026Z,66.70
2017-09-07T10:00:36.556Z,67.80
2017-09-07T10:03:04.060Z,67.60
2017-09-07T10:05:31.546Z,67.80
2017-09-07T10:07:59.080Z,67.00
2017-09-07T10:10:26.567Z,66.90
2017-09-07T10:12:54.063Z,67.40
2017-09-07T10:15:22.233Z,67.50
2017-09-07T10:17:49.718Z,66.50
2017-09-07T10:20:17.197Z,66.70
2017-09-07T10:22:44.672Z,65.90
2017-09-07T10:25:12.203Z,64.80
2017-09-07T10:27:39.704Z,64.50
2017-09-07T10:30:07.194Z,64.30
2017-09-07T10:32:34.669Z,64.00
2017-09-07T10:35:02.149Z,64.80
2017-09-07T10:37:29.646Z,64.90
2017-09-07T10:39:57.135Z,64.70
2017-09-07T10:42:24.636Z,64.90
2017-09-07T10:44:52.136Z,65.20
2017-09-07T10:47:19.624Z,65.10
2017-09-07T10:49:47.296Z,65.00
2017-09-07T10:52:15.478Z,65.10
2017-09-07T10:54:43.134Z,64.10
2017-09-07T10:57:10.682Z,64.60
2017-09-07T10:59:38.384Z,64.70
2017-09-07T11:02:05.972Z,65.20
2017-09-07T11:04:33.462Z,65.60
2017-09-07T11:07:00.943Z,65.50
2017-09-07T11:09:28.448Z,65.30
2017-09-07T11:12:26.094Z,66.20
2017-09-07T11:14:53.615Z,66.10
2017-09-07T11:17:21.094Z,66.10
2017-09-07T11:19:48.578Z,66.60
2017-09-07T11:22:16.074Z,66.70
2017-09-07T11:24:43.550Z,66.40
2017-09-07T11:27:11.035Z,66.50
2017-09-07T11:29:38.519Z,66.20
2017-09-07T11:32:06.007Z,66.70
2017-09-07T11:34:34.245Z,67.30
2017-09-07T11:37:01.730Z,66.40
2017-09-07T11:39:29.978Z,66.60
2017-09-07T11:41:57.475Z,66.50
2017-09-07T11:44:24.971Z,68.00
2017-09-07T11:46:52.466Z,65.50
2017-09-07T11:49:20.236Z,66.80
2017-09-07T11:51:48.581Z,65.70
2017-09-07T11:54:16.279Z,66.40
2017-09-07T11:56:44.963Z,65.60
2017-09-07T11:59:12.442Z,65.50
2017-09-07T12:01:40.078Z,67.70
2017-09-07T12:04:07.570Z,65.20
2017-09-07T12:06:37.376Z,65.50
2017-09-07T12:09:05.635Z,66.10
2017-09-07T12:11:33.130Z,66.10
2017-09-07T12:14:00.670Z,64.90
2017-09-07T12:16:28.923Z,64.10
2017-09-07T12:18:56.694Z,64.10
2017-09-07T12:21:24.565Z,66.00
2017-09-07T12:23:52.057Z,65.50
2017-09-07T12:26:21.270Z,64.60
2017-09-07T12:28:48.754Z,64.50
2017-09-07T12:31:16.263Z,63.20
2017-09-07T12:33:44.514Z,67.00
2017-09-07T12:36:12.006Z,66.90
2017-09-07T12:38:40.269Z,66.90
2017-09-07T12:41:08.532Z,65.80
2017-09-07T12:43:36.022Z,65.70
2017-09-07T12:46:04.281Z,63.50
2017-09-07T12:48:32.546Z,63.30
2017-09-07T12:51:00.031Z,63.20
2017-09-07T12:53:28.351Z,65.10
2017-09-07T12:55:55.855Z,65.00
2017-09-07T12:58:24.135Z,64.50
2017-09-07T13:00:52.394Z,61.10
2017-09-07T13:03:19.886Z,61.00
2017-09-07T13:05:48.143Z,63.20
2017-09-07T13:08:16.469Z,63.20
2017-09-07T13:10:44.016Z,63.20
2017-09-07T13:13:11.529Z,63.30
2017-09-07T13:15:39.030Z,63.50
2017-09-07T13:18:06.517Z,62.40
2017-09-07T13:20:34.027Z,62.40
2017-09-07T13:23:02.301Z,64.40
2017-09-07T13:25:29.814Z,64.50
2017-09-07T13:27:57.330Z,66.70
2017-09-07T13:30:26.006Z,68.30
2017-09-07T13:32:54.957Z,65.80
2017-09-07T13:35:22.469Z,65.70
2017-09-07T13:37:49.965Z,61.80
2017-09-07T13:40:17.476Z,65.70
2017-09-07T13:42:45.734Z,59.30
2017-09-07T13:45:13.223Z,59.20
2017-09-07T13:47:41.490Z,60.40
2017-09-07T13:50:09.742Z,62.00
2017-09-07T13:52:37.239Z,62.00
2017-09-07T13:55:05.496Z,67.20
2017-09-07T13:57:33.754Z,69.50
2017-09-07T14:00:01.250Z,69.00
2017-09-07T14:02:29.497Z,71.90
2017-09-07T14:04:56.996Z,71.90
2017-09-07T14:07:24.494Z,72.60
2017-09-07T14:09:51.978Z,71.00
2017-09-07T14:12:19.466Z,72.20
2017-09-07T14:14:47.717Z,72.30
2017-09-07T14:17:15.210Z,72.30
2017-09-07T14:19:42.693Z,70.90
2017-09-07T14:22:10.203Z,70.40
2017-09-07T14:24:38.469Z,72.20
2017-09-07T14:27:05.962Z,72.20
2017-09-07T14:29:33.449Z,70.00
2017-09-07T14:32:00.955Z,69.90
2017-09-07T14:34:28.460Z,69.90
2017-09-07T14:36:55.966Z,68.90
2017-09-07T14:39:23.454Z,67.20
2017-09-07T14:41:51.698Z,65.90
2017-09-07T14:44:19.199Z,65.80
2017-09-07T14:46:46.682Z,68.30
2017-09-07T14:49:14.186Z,67.10
2017-09-07T14:51:42.558Z,69.90
2017-09-07T14:54:10.078Z,71.50
2017-09-07T14:56:37.639Z,73.10
2017-09-07T14:59:05.197Z,72.80
2017-09-07T15:01:32.686Z,73.30
2017-09-07T15:04:00.165Z,73.90
2017-09-07T15:06:27.652Z,74.60
2017-09-07T15:08:55.131Z,74.40
2017-09-07T15:11:22.617Z,74.00
2017-09-07T15:13:50.249Z,74.30
2017-09-07T15:16:18.020Z,72.30
2017-09-07T15:18:45.786Z,72.70
2017-09-07T15:21:14.150Z,73.40
2017-09-07T15:23:42.541Z,75.90
2017-09-07T15:26:10.309Z,77.00
2017-09-07T15:28:38.328Z,79.40
2017-09-07T15:31:06.659Z,81.70
2017-09-07T15:33:34.324Z,80.80
2017-09-07T15:36:02.407Z,81.10
2017-09-07T15:38:30.170Z,80.50
2017-09-07T15:40:58.246Z,81.10
2017-09-07T15:43:26.484Z,82.10
2017-09-07T15:45:55.245Z,82.00
2017-09-07T15:48:23.527Z,81.90
2017-09-07T15:50:52.618Z,82.20
2017-09-07T15:53:21.048Z,82.10
2017-09-07T15:55:48.770Z,82.80
2017-09-07T15:58:16.265Z,83.10
2017-09-07T16:00:43.807Z,84.50
2017-09-07T16:03:12.304Z,83.10
2017-09-07T16:05:39.984Z,83.10
2017-09-07T16:08:08.098Z,83.30
2017-09-07T16:10:36.346Z,84.60
2017-09-07T16:13:03.917Z,83.70
2017-09-07T16:15:31.878Z,83.40
2017-09-07T16:17:59.538Z,83.00
2017-09-07T16:20:27.692Z,83.00
2017-09-07T16:22:55.574Z,83.30
2017-09-07T16:25:23.944Z,81.90
2017-09-07T16:27:51.745Z,82.00
2017-09-07T16:30:20.335Z,82.70
2017-09-07T16:32:48.885Z,83.40
2017-09-07T16:35:17.061Z,83.90
2017-09-07T16:37:44.860Z,83.80
2017-09-07T16:40:12.405Z,83.40
2017-09-07T16:42:39.908Z,82.60
2017-09-07T16:45:08.281Z,81.80
2017-09-07T16:47:37.223Z,84.40
2017-09-07T16:50:04.994Z,84.20
2017-09-07T16:52:32.831Z,79.50
2017-09-07T16:55:01.030Z,78.60
2017-09-07T16:57:28.612Z,79.00
2017-09-07T16:59:56.642Z,80.00
2017-09-07T17:02:24.311Z,78.50
2017-09-07T17:04:52.651Z,75.80
2017-09-07T17:07:20.278Z,78.40
2017-09-07T17:09:48.132Z,76.20
2017-09-07T17:12:15.801Z,76.40
2017-09-07T17:14:43.342Z,75.00
2017-09-07T17:17:10.911Z,76.80
2017-09-07T17:19:38.785Z,76.50
2017-09-07T17:22:06.967Z,75.20
2017-09-07T17:24:34.621Z,74.40
2017-09-07T17:27:02.579Z,89.30
2017-09-07T17:29:30.558Z,85.30
2017-09-07T17:31:59.199Z,82.50
2017-09-07T17:34:27.708Z,74.60
2017-09-07T17:36:56.511Z,76.40
2017-09-07T17:39:25.352Z,78.60
2017-09-07T17:41:54.069Z,85.30
2017-09-07T17:44:22.662Z,77.80
2017-09-07T17:46:51.522Z,77.50
2017-09-07T17:49:19.587Z,77.30
2017-09-07T17:51:47.855Z,77.00
2017-09-07T17:54:15.378Z,81.70
2017-09-07T17:56:43.459Z,77.10
2017-09-07T17:59:11.742Z,77.40
2017-09-07T18:01:39.399Z,79.70
2017-09-07T18:04:07.564Z,78.70
2017-09-07T18:06:35.322Z,78.60
2017-09-07T18:09:03.719Z,78.90
2017-09-07T18:11:32.712Z,81.10
2017-09-07T18:14:00.685Z,79.70
2017-09-07T18:16:28.498Z,81.50
2017-09-07T18:18:56.930Z,79.90
2017-09-07T18:21:24.719Z,79.90
2017-09-07T18:23:52.585Z,79.50
2017-09-07T18:26:20.843Z,79.70
2017-09-07T18:28:48.418Z,80.40
2017-09-07T18:31:16.534Z,82.10
2017-09-07T18:33:45.068Z,83.10
2017-09-07T18:36:12.835Z,83.10
2017-09-07T18:38:41.500Z,81.80
2017-09-07T18:41:10.381Z,80.50
2017-09-07T18:43:39.351Z,80.30
2017-09-07T18:46:07.633Z,80.50
2017-09-07T18:48:36.055Z,81.00
2017-09-07T18:51:03.774Z,80.30
2017-09-07T18:53:32.434Z,79.60
2017-09-07T18:56:00.402Z,79.70
2017-09-07T18:58:28.618Z,80.00
2017-09-07T19:00:57.861Z,78.70
2017-09-07T19:03:25.852Z,78.50
2017-09-07T19:05:53.909Z,78.60
2017-09-07T19:08:22.083Z,77.70
2017-09-07T19:10:49.998Z,78.40
2017-09-07T19:13:18.666Z,79.80
2017-09-07T19:15:46.356Z,79.30
2017-09-07T19:18:14.987Z,79.80
2017-09-07T19:20:43.371Z,79.60
2017-09-07T19:23:11.537Z,80.50
2017-09-07T19:25:39.374Z,80.30
2017-09-07T19:28:07.817Z,82.30
2017-09-07T19:30:35.383Z,82.10
2017-09-07T19:33:04.056Z,82.30
2017-09-07T19:35:32.210Z,82.90
2017-09-07T19:38:00.274Z,83.60
2017-09-07T19:40:28.857Z,84.10
2017-09-07T19:42:56.805Z,84.60
2017-09-07T19:45:26.401Z,85.70
2017-09-07T19:47:55.289Z,87.70
2017-09-07T19:50:23.979Z,87.60
2017-09-07T19:52:53.010Z,84.70
2017-09-07T19:55:21.385Z,84.60
2017-09-07T19:57:49.462Z,86.20
2017-09-07T20:00:18.451Z,86.60
2017-09-07T20:02:46.583Z,86.60
2017-09-07T20:05:14.531Z,84.70
2017-09-07T20:07:42.571Z,83.80
2017-09-07T20:10:10.356Z,85.50
2017-09-07T20:12:38.412Z,87.00
2017-09-07T20:15:06.799Z,86.80
2017-09-07T20:17:34.807Z,88.30
2017-09-07T20:20:02.514Z,88.90
2017-09-07T20:22:31.208Z,91.60
2017-09-07T20:24:58.931Z,91.50
2017-09-07T20:27:26.564Z,91.50
2017-09-07T20:29:54.146Z,91.20
2017-09-07T20:32:23.215Z,90.30
2017-09-07T20:34:50.694Z,90.30
2017-09-07T20:37:18.990Z,91.00
2017-09-07T20:39:47.244Z,89.50
2017-09-07T20:42:14.991Z,89.40
2017-09-07T20:44:42.679Z,88.00
2017-09-07T20:47:10.226Z,87.80
2017-09-07T20:49:37.731Z,87.00
2017-09-07T20:52:05.988Z,83.80
2017-09-07T20:54:33.474Z,83.80
2017-09-07T20:57:00.962Z,84.50
2017-09-07T20:59:28.433Z,82.90
2017-09-07T21:01:55.907Z,82.50
2017-09-07T21:04:23.395Z,83.50
2017-09-07T21:06:51.646Z,81.60
2017-09-07T21:09:19.121Z,81.60
2017-09-07T21:11:47.374Z,81.40
2017-09-07T21:14:14.858Z,82.30
2017-09-07T21:16:43.121Z,80.20
2017-09-07T21:19:11.257Z,79.40
2017-09-07T21:21:40.548Z,81.20
2017-09-07T21:24:08.217Z,80.60
2017-09-07T21:26:36.235Z,82.00
2017-09-07T21:29:05.868Z,82.50
2017-09-07T21:31:34.924Z,80.60
2017-09-07T21:34:02.666Z,80.60
2017-09-07T21:36:30.946Z,81.00
2017-09-07T21:38:58.495Z,83.60
2017-09-07T21:41:25.982Z,84.00
2017-09-07T21:43:53.556Z,83.90
2017-09-07T21:46:21.351Z,83.00
2017-09-07T21:48:50.502Z,83.40
2017-09-07T21:51:19.743Z,83.30
2017-09-07T21:53:47.986Z,84.10
2017-09-07T21:56:15.543Z,84.00
2017-09-07T21:58:43.058Z,85.60
2017-09-07T22:01:10.587Z,85.00
2017-09-07T22:03:39.789Z,86.00
2017-09-07T22:06:07.500Z,86.00
2017-09-07T22:08:35.014Z,84.80
2017-09-07T22:11:03.457Z,82.90
2017-09-07T22:13:31.101Z,82.90
2017-09-07T22:15:58.817Z,83.00
2017-09-07T22:18:26.391Z,83.00
2017-09-07T22:20:54.912Z,82.50
2017-09-07T22:23:22.505Z,82.50
2017-09-07T22:25:49.987Z,82.30
2017-09-07T22:28:18.243Z,82.30
2017-09-07T22:30:45.727Z,82.30
2017-09-07T22:33:13.206Z,83.30
2017-09-07T22:35:40.683Z,84.00
2017-09-07T22:38:08.162Z,80.50
2017-09-07T22:40:35.640Z,78.90
2017-09-07T22:43:03.118Z,80.20
2017-09-07T22:45:31.364Z,81.60
2017-09-07T22:47:58.856Z,81.60
2017-09-07T22:50:27.101Z,82.80
2017-09-07T22:52:54.600Z,82.70
2017-09-07T22:55:22.851Z,88.30
2017-09-07T22:57:50.351Z,88.10
2017-09-07T23:00:17.839Z,88.40
2017-09-07T23:02:45.319Z,89.10
2017-09-07T23:05:12.801Z,90.10
2017-09-07T23:07:41.051Z,90.40
2017-09-07T23:10:08.540Z,90.40
2017-09-07T23:12:36.798Z,91.30
2017-09-07T23:15:04.282Z,90.90
2017-09-07T23:17:32.535Z,90.80
2017-09-07T23:20:00.028Z,90.80
2017-09-07T23:22:27.519Z,90.70
2017-09-07T23:24:55.020Z,90.90
2017-09-07T23:27:22.503Z,91.10
2017-09-07T23:29:50.763Z,91.50
2017-09-07T23:32:18.245Z,91.50
2017-09-07T23:34:46.503Z,90.30
2017-09-07T23:37:13.993Z,90.30
2017-09-07T23:39:41.520Z,91.40
2017-09-07T23:42:09.771Z,91.00
2017-09-07T23:44:37.254Z,91.20
2017-09-07T23:47:05.489Z,91.60
2017-09-07T23:49:33.392Z,91.20
2017-09-07T23:52:01.311Z,90.90
2017-09-07T23:54:28.976Z,91.30
2017-09-07T23:56:56.511Z,91.40
2017-09-07T23:59:24.045Z,91.00
